Alpena, Michigan
Current Conditions -  °F | °C
As of 4:54 PM on Wednesday 22 Oct 2014 (Local Time) from KAPN Reporting Station
Clear Clear  
Wind Chill: 47°   Ceiling: Unl
Heat Index: 49°   Visibility: 10mi
Dew Point: 35°   Wind: 6mph
Humidity: 59%   Direction: 50°NE
Pressure: 30.33"   Gusts: NA
Location:  45.06°N, 83.44°W
Report Text: KAPN 222054Z AUTO 05005KT 10SM CLR 09/02 A3033 RMK AO2 SLP277 T00940017 56010
Loading
Personal Weather Stations






























Interactive Weather Map
Tropical Storm Tracking
New forecast layout! Learn more

10-Day Weather Forecast

Advertisements
Track Severe Weather on mobile